North Brunswick, New Jersey
Current Conditions -  °F | °C
As of 3:53 PM on Tuesday 21 Oct 2014 (Local Time) from KSMQ Reporting Station
Overcast Overcast  
Wind Chill: 68°   Ceiling: 9000
Heat Index: 68°   Visibility: 8mi
Dew Point: 48°   Wind: 6mph
Humidity: 49%   Direction: 80°E
Pressure: 29.79"   Gusts: NA
Location:  40.45°N, 74.48°W
Report Text: KSMQ 211953Z AUTO 08005KT 8SM OVC090 20/09 A2979 RMK AO2 SLP089 T02000089
Loading
Personal Weather Stations






























Interactive Weather Map
Tropical Storm Tracking
New forecast layout! Learn more

10-Day Weather Forecast

Advertisements
Track Severe Weather on mobile